San Diego, California
Traffic Map
Current Weather Conditions
San Diego, California
Clear
Clear
57°
Feels Like: 57°
Wind Chill: 57° Ceiling: Unl
Heat Index: 57° Visibility: 10mi
Dew Point: 28° Wind: 0mph
Humidity: 33% Direction: ° ()
Pressure: 30.1in Gusts: 0mph
Raw Report DataKSAN 041651Z 00000KT 10SM CLR 14/M02 A3010 RMK AO2 SLP192 T01391022
Traffic Incident Summary
Active as of:
Severity:
Category:
InformationThere was an issue retrieving the traffic information for this location. Please try a different location or try again shortly.
Advertisements
Track Severe Weather on mobile